sensor_id;sensor_type;location;lat;lon;timestamp;pressure;altitude;pressure_sealevel;temperature;humidity
49459;BME280;35354;51.296;16.924;2023-05-01T00:01:02;100147.22;;;7.24;69.46
49459;BME280;35354;51.296;16.924;2023-05-01T00:03:29;100145.34;;;7.31;68.84
49459;BME280;35354;51.296;16.924;2023-05-01T00:06:03;100138.38;;;7.33;68.84
49459;BME280;35354;51.296;16.924;2023-05-01T00:08:30;100148.59;;;7.39;68.21
49459;BME280;35354;51.296;16.924;2023-05-01T00:10:55;100139.78;;;7.46;67.66
49459;BME280;35354;51.296;16.924;2023-05-01T00:13:21;100129.44;;;7.44;67.11
49459;BME280;35354;51.296;16.924;2023-05-01T00:15:49;100134.47;;;7.50;66.48
49459;BME280;35354;51.296;16.924;2023-05-01T00:18:14;100132.72;;;7.51;66.07
49459;BME280;35354;51.296;16.924;2023-05-01T00:20:40;100136.91;;;7.57;66.56
49459;BME280;35354;51.296;16.924;2023-05-01T00:23:06;100141.16;;;7.59;66.25
49459;BME280;35354;51.296;16.924;2023-05-01T00:25:32;100133.34;;;7.61;65.63
49459;BME280;35354;51.296;16.924;2023-05-01T00:27:58;100134.09;;;7.64;65.87
49459;BME280;35354;51.296;16.924;2023-05-01T00:30:24;100118.69;;;7.58;66.71
49459;BME280;35354;51.296;16.924;2023-05-01T00:32:49;100129.88;;;7.60;67.04
49459;BME280;35354;51.296;16.924;2023-05-01T00:35:15;100131.63;;;7.60;66.52
49459;BME280;35354;51.296;16.924;2023-05-01T00:37:40;100096.00;;;7.35;65.56
49459;BME280;35354;51.296;16.924;2023-05-01T00:40:07;100111.22;;;7.47;65.27
49459;BME280;35354;51.296;16.924;2023-05-01T00:42:37;100126.69;;;7.50;65.27
49459;BME280;35354;51.296;16.924;2023-05-01T00:45:06;100115.69;;;7.42;65.18
49459;BME280;35354;51.296;16.924;2023-05-01T00:47:34;100085.94;;;7.23;65.92
49459;BME280;35354;51.296;16.924;2023-05-01T00:50:01;100109.75;;;7.37;65.98
49459;BME280;35354;51.296;16.924;2023-05-01T00:52:26;100107.97;;;7.39;65.97
49459;BME280;35354;51.296;16.924;2023-05-01T00:54:53;100119.84;;;7.48;66.50
49459;BME280;35354;51.296;16.924;2023-05-01T00:57:19;100121.53;;;7.50;65.71
49459;BME280;35354;51.296;16.924;2023-05-01T00:59:44;100119.06;;;7.46;65.85
49459;BME280;35354;51.296;16.924;2023-05-01T01:02:10;100119.78;;;7.51;66.31
49459;BME280;35354;51.296;16.924;2023-05-01T01:04:37;100109.53;;;7.46;66.54
49459;BME280;35354;51.296;16.924;2023-05-01T01:12:23;100108.06;;;7.36;65.46
49459;BME280;35354;51.296;16.924;2023-05-01T01:15:04;100113.16;;;7.39;65.50
49459;BME280;35354;51.296;16.924;2023-05-01T01:23:42;100069.06;;;7.08;64.74
49459;BME280;35354;51.296;16.924;2023-05-01T01:26:26;100091.19;;;7.21;65.50
49459;BME280;35354;51.296;16.924;2023-05-01T01:34:52;100068.59;;;6.92;66.66
49459;BME280;35354;51.296;16.924;2023-05-01T01:37:27;100065.31;;;6.86;68.26
49459;BME280;35354;51.296;16.924;2023-05-01T01:42:25;100093.00;;;6.82;70.45
49459;BME280;35354;51.296;16.924;2023-05-01T01:44:57;100081.25;;;6.69;71.22
49459;BME280;35354;51.296;16.924;2023-05-01T01:47:27;100070.22;;;6.61;71.56
49459;BME280;35354;51.296;16.924;2023-05-01T01:49:57;100091.75;;;6.63;71.25
49459;BME280;35354;51.296;16.924;2023-05-01T01:52:25;100094.56;;;6.54;71.09
49459;BME280;35354;51.296;16.924;2023-05-01T01:54:54;99960.91;;;5.76;71.18
49459;BME280;35354;51.296;16.924;2023-05-01T01:57:23;100080.19;;;6.40;71.32
49459;BME280;35354;51.296;16.924;2023-05-01T01:59:50;100079.44;;;6.37;71.81
49459;BME280;35354;51.296;16.924;2023-05-01T02:02:18;100089.78;;;6.37;71.77
49459;BME280;35354;51.296;16.924;2023-05-01T02:04:45;100078.75;;;6.27;72.31
49459;BME280;35354;51.296;16.924;2023-05-01T02:07:12;100067.03;;;6.12;72.59
49459;BME280;35354;51.296;16.924;2023-05-01T02:09:40;100094.38;;;6.24;72.35
49459;BME280;35354;51.296;16.924;2023-05-01T02:12:07;100074.84;;;6.09;72.86
49459;BME280;35354;51.296;16.924;2023-05-01T02:14:34;100085.19;;;6.09;73.75
49459;BME280;35354;51.296;16.924;2023-05-01T02:17:01;100066.50;;;5.96;74.07
49459;BME280;35354;51.296;16.924;2023-05-01T02:19:28;100071.63;;;5.98;73.98
49459;BME280;35354;51.296;16.924;2023-05-01T02:21:57;100062.44;;;5.83;74.01
49459;BME280;35354;51.296;16.924;2023-05-01T02:24:24;100066.72;;;5.84;74.12
49459;BME280;35354;51.296;16.924;2023-05-01T02:26:55;100089.88;;;5.89;74.42
49459;BME280;35354;51.296;16.924;2023-05-01T02:29:23;100069.41;;;5.80;75.05
49459;BME280;35354;51.296;16.924;2023-05-01T02:31:49;100073.75;;;5.78;74.49
49459;BME280;35354;51.296;16.924;2023-05-01T02:34:15;100071.13;;;5.79;74.60
49459;BME280;35354;51.296;16.924;2023-05-01T02:36:40;100063.56;;;5.70;74.88
49459;BME280;35354;51.296;16.924;2023-05-01T02:39:06;100063.66;;;5.65;75.45
49459;BME280;35354;51.296;16.924;2023-05-01T02:41:34;100084.16;;;5.74;75.64
49459;BME280;35354;51.296;16.924;2023-05-01T02:44:02;100062.97;;;5.57;75.71
49459;BME280;35354;51.296;16.924;2023-05-01T02:46:29;100084.31;;;5.67;75.88
49459;BME280;35354;51.296;16.924;2023-05-01T02:48:57;100074.09;;;5.59;75.95
49459;BME280;35354;51.296;16.924;2023-05-01T02:51:24;100068.19;;;5.54;76.27
49459;BME280;35354;51.296;16.924;2023-05-01T02:53:50;100070.81;;;5.51;76.13
49459;BME280;35354;51.296;16.924;2023-05-01T02:56:16;100074.25;;;5.53;76.53
49459;BME280;35354;51.296;16.924;2023-05-01T02:58:41;100066.53;;;5.50;76.51
49459;BME280;35354;51.296;16.924;2023-05-01T03:01:07;100038.41;;;5.35;76.42
49459;BME280;35354;51.296;16.924;2023-05-01T03:03:32;100036.84;;;5.28;76.55
49459;BME280;35354;51.296;16.924;2023-05-01T03:05:57;100062.44;;;5.40;76.09
49459;BME280;35354;51.296;16.924;2023-05-01T03:08:24;100069.16;;;5.48;76.11
49459;BME280;35354;51.296;16.924;2023-05-01T03:10:49;100066.81;;;5.36;75.64
49459;BME280;35354;51.296;16.924;2023-05-01T03:13:14;100048.13;;;5.22;75.97
49459;BME280;35354;51.296;16.924;2023-05-01T03:15:40;100047.28;;;5.21;76.02
49459;BME280;35354;51.296;16.924;2023-05-01T03:18:06;100063.47;;;5.31;76.64
49459;BME280;35354;51.296;16.924;2023-05-01T03:20:32;100064.41;;;5.27;76.10
49459;BME280;35354;51.296;16.924;2023-05-01T03:22:58;100059.34;;;5.21;76.28
49459;BME280;35354;51.296;16.924;2023-05-01T03:25:23;100061.03;;;5.23;76.13
49459;BME280;35354;51.296;16.924;2023-05-01T03:27:48;100056.75;;;5.22;76.36
49459;BME280;35354;51.296;16.924;2023-05-01T03:30:14;100065.34;;;5.23;76.43
49459;BME280;35354;51.296;16.924;2023-05-01T03:32:40;100061.91;;;5.22;76.11
49459;BME280;35354;51.296;16.924;2023-05-01T03:35:05;100051.59;;;5.21;76.16
49459;BME280;35354;51.296;16.924;2023-05-01T03:37:32;100060.19;;;5.21;76.02
49459;BME280;35354;51.296;16.924;2023-05-01T03:39:58;100050.81;;;5.16;75.74
49459;BME280;35354;51.296;16.924;2023-05-01T03:42:23;100057.59;;;5.21;75.83
49459;BME280;35354;51.296;16.924;2023-05-01T03:44:49;100058.47;;;5.20;75.85
49459;BME280;35354;51.296;16.924;2023-05-01T03:47:14;100061.91;;;5.22;76.24
49459;BME280;35354;51.296;16.924;2023-05-01T03:49:40;100061.91;;;5.22;76.07
49459;BME280;35354;51.296;16.924;2023-05-01T03:52:07;100043.88;;;5.18;75.75
49459;BME280;35354;51.296;16.924;2023-05-01T03:54:33;100046.41;;;5.21;75.94
49459;BME280;35354;51.296;16.924;2023-05-01T03:56:58;100047.25;;;5.23;76.27
49459;BME280;35354;51.296;16.924;2023-05-01T03:59:25;100041.69;;;5.43;76.78
49459;BME280;35354;51.296;16.924;2023-05-01T04:01:51;100036.09;;;6.08;75.15
49459;BME280;35354;51.296;16.924;2023-05-01T04:04:16;100044.34;;;6.96;72.38
49459;BME280;35354;51.296;16.924;2023-05-01T04:06:42;100045.56;;;7.78;70.25
49459;BME280;35354;51.296;16.924;2023-05-01T04:09:08;100030.81;;;8.10;69.11
49459;BME280;35354;51.296;16.924;2023-05-01T04:11:33;100031.06;;;8.29;69.37
49459;BME280;35354;51.296;16.924;2023-05-01T04:13:58;100025.44;;;8.44;68.08
49459;BME280;35354;51.296;16.924;2023-05-01T04:16:24;100032.31;;;8.71;67.18
49459;BME280;35354;51.296;16.924;2023-05-01T04:18:49;100035.19;;;8.90;67.48
49459;BME280;35354;51.296;16.924;2023-05-01T04:21:15;100030.03;;;9.14;66.48
49459;BME280;35354;51.296;16.924;2023-05-01T04:23:42;100016.75;;;9.46;65.70
49459;BME280;35354;51.296;16.924;2023-05-01T04:26:08;100025.03;;;10.48;63.27
49459;BME280;35354;51.296;16.924;2023-05-01T04:28:33;100037.38;;;11.47;60.73
49459;BME280;35354;51.296;16.924;2023-05-01T04:30:58;100011.28;;;11.86;58.14
49459;BME280;35354;51.296;16.924;2023-05-01T04:33:24;100022.34;;;11.91;57.94
49459;BME280;35354;51.296;16.924;2023-05-01T04:35:49;100003.34;;;11.69;58.05
49459;BME280;35354;51.296;16.924;2023-05-01T04:38:15;100005.59;;;11.58;57.29
49459;BME280;35354;51.296;16.924;2023-05-01T04:40:40;100027.97;;;11.82;56.97
49459;BME280;35354;51.296;16.924;2023-05-01T04:43:12;100011.66;;;11.97;56.30
49459;BME280;35354;51.296;16.924;2023-05-01T04:45:46;100027.47;;;12.67;54.64
49459;BME280;35354;51.296;16.924;2023-05-01T04:48:11;100008.38;;;13.34;51.78
49459;BME280;35354;51.296;16.924;2023-05-01T04:50:37;100031.59;;;14.68;50.08
49459;BME280;35354;51.296;16.924;2023-05-01T04:53:02;100033.34;;;15.14;48.67
49459;BME280;35354;51.296;16.924;2023-05-01T04:55:28;100022.53;;;15.04;48.32
49459;BME280;35354;51.296;16.924;2023-05-01T04:57:53;100026.09;;;14.73;48.60
49459;BME280;35354;51.296;16.924;2023-05-01T05:00:18;100031.97;;;14.46;49.66
49459;BME280;35354;51.296;16.924;2023-05-01T05:02:45;100012.63;;;14.33;49.31
49459;BME280;35354;51.296;16.924;2023-05-01T05:05:10;100026.03;;;14.43;49.02
49459;BME280;35354;51.296;16.924;2023-05-01T05:07:36;100034.00;;;14.57;48.59
49459;BME280;35354;51.296;16.924;2023-05-01T05:10:01;100023.63;;;15.44;46.81
49459;BME280;35354;51.296;16.924;2023-05-01T05:12:26;100031.91;;;16.50;45.33
49459;BME280;35354;51.296;16.924;2023-05-01T05:14:55;100010.31;;;16.71;44.74
49459;BME280;35354;51.296;16.924;2023-05-01T05:17:20;99955.06;;;16.19;45.05
49459;BME280;35354;51.296;16.924;2023-05-01T05:19:45;100022.47;;;16.60;45.47
49459;BME280;35354;51.296;16.924;2023-05-01T05:22:11;100012.22;;;16.42;45.47
49459;BME280;35354;51.296;16.924;2023-05-01T05:24:36;100027.84;;;16.31;45.59
49459;BME280;35354;51.296;16.924;2023-05-01T05:27:02;100020.78;;;16.73;45.48
49459;BME280;35354;51.296;16.924;2023-05-01T05:29:28;100024.94;;;17.54;43.91
49459;BME280;35354;51.296;16.924;2023-05-01T05:31:53;100023.25;;;17.53;43.18
49459;BME280;35354;51.296;16.924;2023-05-01T05:34:18;100017.69;;;18.07;42.31
49459;BME280;35354;51.296;16.924;2023-05-01T05:36:44;99973.78;;;18.18;42.16
49459;BME280;35354;51.296;16.924;2023-05-01T05:39:09;99986.63;;;16.71;43.56
49459;BME280;35354;51.296;16.924;2023-05-01T05:41:37;100020.00;;;16.71;44.67
49459;BME280;35354;51.296;16.924;2023-05-01T05:44:02;99971.59;;;16.61;45.00
49459;BME280;35354;51.296;16.924;2023-05-01T05:46:27;100025.03;;;17.52;44.13
49459;BME280;35354;51.296;16.924;2023-05-01T05:48:53;99996.09;;;18.50;43.08
49459;BME280;35354;51.296;16.924;2023-05-01T05:51:18;100019.81;;;19.66;41.49
49459;BME280;35354;51.296;16.924;2023-05-01T05:53:43;100018.25;;;20.41;40.29
49459;BME280;35354;51.296;16.924;2023-05-01T05:56:09;100002.13;;;20.44;40.14
49459;BME280;35354;51.296;16.924;2023-05-01T05:58:35;100020.75;;;19.54;41.07
49459;BME280;35354;51.296;16.924;2023-05-01T06:01:00;99981.25;;;18.49;41.50
49459;BME280;35354;51.296;16.924;2023-05-01T06:03:25;99980.41;;;18.48;42.11
49459;BME280;35354;51.296;16.924;2023-05-01T06:05:51;100013.53;;;19.23;42.21
49459;BME280;35354;51.296;16.924;2023-05-01T06:08:17;99980.53;;;19.73;41.29
49459;BME280;35354;51.296;16.924;2023-05-01T06:10:42;99982.91;;;20.31;40.36
49459;BME280;35354;51.296;16.924;2023-05-01T06:13:08;99995.19;;;19.66;41.01
49459;BME280;35354;51.296;16.924;2023-05-01T06:15:37;100016.34;;;18.97;42.27
49459;BME280;35354;51.296;16.924;2023-05-01T06:18:02;100008.13;;;19.47;41.66
49459;BME280;35354;51.296;16.924;2023-05-01T06:20:28;99977.69;;;20.08;41.09
49459;BME280;35354;51.296;16.924;2023-05-01T06:22:54;100005.72;;;20.43;39.43
49459;BME280;35354;51.296;16.924;2023-05-01T06:25:20;100001.63;;;21.95;38.29
49459;BME280;35354;51.296;16.924;2023-05-01T06:27:45;100003.56;;;22.62;37.08
49459;BME280;35354;51.296;16.924;2023-05-01T06:30:11;99971.44;;;21.77;37.99
49459;BME280;35354;51.296;16.924;2023-05-01T06:32:36;99967.59;;;22.00;37.31
49459;BME280;35354;51.296;16.924;2023-05-01T06:35:01;99984.25;;;24.29;35.17
49459;BME280;35354;51.296;16.924;2023-05-01T06:37:27;99989.47;;;26.21;33.29
49459;BME280;35354;51.296;16.924;2023-05-01T06:39:52;99969.38;;;25.24;33.07
49459;BME280;35354;51.296;16.924;2023-05-01T06:42:17;99988.34;;;24.95;33.53
49459;BME280;35354;51.296;16.924;2023-05-01T06:44:45;99999.66;;;23.52;34.44
49459;BME280;35354;51.296;16.924;2023-05-01T06:47:10;99991.03;;;24.23;34.52
49459;BME280;35354;51.296;16.924;2023-05-01T06:49:36;99997.22;;;25.55;33.51
49459;BME280;35354;51.296;16.924;2023-05-01T06:52:01;99971.84;;;26.77;32.13
49459;BME280;35354;51.296;16.924;2023-05-01T06:54:26;99978.72;;;28.53;31.22
49459;BME280;35354;51.296;16.924;2023-05-01T06:56:52;99977.22;;;30.64;29.69
49459;BME280;35354;51.296;16.924;2023-05-01T06:59:18;99969.91;;;30.37;29.40
49459;BME280;35354;51.296;16.924;2023-05-01T07:01:43;99986.34;;;31.95;27.92
49459;BME280;35354;51.296;16.924;2023-05-01T07:04:09;99968.34;;;31.20;27.97
49459;BME280;35354;51.296;16.924;2023-05-01T07:06:35;99956.22;;;32.60;26.93
49459;BME280;35354;51.296;16.924;2023-05-01T07:09:00;99963.84;;;31.27;28.00
49459;BME280;35354;51.296;16.924;2023-05-01T07:11:25;99980.53;;;31.44;28.43
49459;BME280;35354;51.296;16.924;2023-05-01T07:13:52;99967.59;;;31.74;27.81
49459;BME280;35354;51.296;16.924;2023-05-01T07:16:18;99958.69;;;32.61;27.63
49459;BME280;35354;51.296;16.924;2023-05-01T07:18:43;99961.91;;;33.63;27.23
49459;BME280;35354;51.296;16.924;2023-05-01T07:21:08;99946.03;;;34.18;26.40
49459;BME280;35354;51.296;16.924;2023-05-01T07:23:37;99963.63;;;35.45;25.35
49459;BME280;35354;51.296;16.924;2023-05-01T07:26:02;99957.56;;;37.06;24.49
49459;BME280;35354;51.296;16.924;2023-05-01T07:28:28;99937.97;;;38.13;23.75
49459;BME280;35354;51.296;16.924;2023-05-01T07:30:54;99964.69;;;38.78;23.58
49459;BME280;35354;51.296;16.924;2023-05-01T07:33:19;99947.00;;;38.81;23.79
49459;BME280;35354;51.296;16.924;2023-05-01T07:35:44;99951.59;;;36.08;24.30
49459;BME280;35354;51.296;16.924;2023-05-01T07:38:10;99964.28;;;35.78;24.69
49459;BME280;35354;51.296;16.924;2023-05-01T07:40:36;99951.34;;;34.31;25.02
49459;BME280;35354;51.296;16.924;2023-05-01T07:43:02;99957.22;;;34.53;25.26
49459;BME280;35354;51.296;16.924;2023-05-01T07:45:28;99945.84;;;32.63;26.94
49459;BME280;35354;51.296;16.924;2023-05-01T07:47:53;99941.88;;;34.72;26.09
49459;BME280;35354;51.296;16.924;2023-05-01T07:50:19;99955.00;;;36.04;24.86
49459;BME280;35354;51.296;16.924;2023-05-01T07:52:44;99946.13;;;38.13;24.09
49459;BME280;35354;51.296;16.924;2023-05-01T07:55:10;99915.00;;;38.20;24.08
49459;BME280;35354;51.296;16.924;2023-05-01T07:57:36;99948.16;;;38.34;23.83
49459;BME280;35354;51.296;16.924;2023-05-01T08:00:01;99919.09;;;39.07;23.32
49459;BME280;35354;51.296;16.924;2023-05-01T08:02:26;99941.38;;;36.99;24.01
49459;BME280;35354;51.296;16.924;2023-05-01T08:04:52;99926.00;;;34.75;24.90
49459;BME280;35354;51.296;16.924;2023-05-01T08:07:17;99941.25;;;36.59;24.46
49459;BME280;35354;51.296;16.924;2023-05-01T08:09:42;99932.03;;;37.07;24.04
49459;BME280;35354;51.296;16.924;2023-05-01T08:12:08;99940.22;;;38.16;23.27
49459;BME280;35354;51.296;16.924;2023-05-01T08:14:33;99931.94;;;37.94;23.77
49459;BME280;35354;51.296;16.924;2023-05-01T08:16:59;99933.00;;;37.64;23.54
49459;BME280;35354;51.296;16.924;2023-05-01T08:19:24;99934.63;;;36.90;23.91
49459;BME280;35354;51.296;16.924;2023-05-01T08:21:52;99933.44;;;34.62;24.58
49459;BME280;35354;51.296;16.924;2023-05-01T08:24:17;99888.13;;;31.98;26.45
49459;BME280;35354;51.296;16.924;2023-05-01T08:26:43;99924.34;;;31.34;27.20
49459;BME280;35354;51.296;16.924;2023-05-01T08:29:08;99885.09;;;28.37;29.27
49459;BME280;35354;51.296;16.924;2023-05-01T08:31:34;99910.84;;;25.91;32.10
49459;BME280;35354;51.296;16.924;2023-05-01T08:34:02;99916.06;;;24.28;32.91
49459;BME280;35354;51.296;16.924;2023-05-01T08:36:27;99928.56;;;22.51;34.46
49459;BME280;35354;51.296;16.924;2023-05-01T08:38:52;99907.72;;;21.07;36.67
49459;BME280;35354;51.296;16.924;2023-05-01T08:41:20;99911.44;;;21.05;36.98
49459;BME280;35354;51.296;16.924;2023-05-01T08:43:46;99889.41;;;20.95;37.46
49459;BME280;35354;51.296;16.924;2023-05-01T08:46:14;99907.75;;;20.86;37.23
49459;BME280;35354;51.296;16.924;2023-05-01T08:48:46;99927.13;;;20.66;38.21
49459;BME280;35354;51.296;16.924;2023-05-01T08:51:13;99919.31;;;20.00;38.16
49459;BME280;35354;51.296;16.924;2023-05-01T08:53:41;99917.00;;;19.63;38.98
49459;BME280;35354;51.296;16.924;2023-05-01T08:56:09;99914.16;;;19.22;39.71
49459;BME280;35354;51.296;16.924;2023-05-01T08:58:35;99902.56;;;18.78;39.55
49459;BME280;35354;51.296;16.924;2023-05-01T09:01:01;99908.47;;;18.81;40.54
49459;BME280;35354;51.296;16.924;2023-05-01T09:03:27;99895.41;;;18.80;39.09
49459;BME280;35354;51.296;16.924;2023-05-01T09:05:56;99882.72;;;18.61;39.68
49459;BME280;35354;51.296;16.924;2023-05-01T09:08:21;99900.69;;;18.56;40.68
49459;BME280;35354;51.296;16.924;2023-05-01T09:10:47;99907.38;;;18.73;40.39
49459;BME280;35354;51.296;16.924;2023-05-01T09:13:17;99900.44;;;18.94;40.17
49459;BME280;35354;51.296;16.924;2023-05-01T09:15:43;99885.53;;;18.82;40.47
49459;BME280;35354;51.296;16.924;2023-05-01T09:18:10;99855.81;;;18.33;40.37
49459;BME280;35354;51.296;16.924;2023-05-01T09:20:36;99889.13;;;18.69;40.43
49459;BME280;35354;51.296;16.924;2023-05-01T09:23:02;99877.09;;;18.54;40.31
49459;BME280;35354;51.296;16.924;2023-05-01T09:25:28;99883.38;;;18.40;40.12
49459;BME280;35354;51.296;16.924;2023-05-01T09:27:53;99873.34;;;18.10;41.06
49459;BME280;35354;51.296;16.924;2023-05-01T09:30:37;99847.47;;;17.67;41.48
49459;BME280;35354;51.296;16.924;2023-05-01T09:33:13;99855.50;;;17.79;41.79
49459;BME280;35354;51.296;16.924;2023-05-01T09:35:52;99883.38;;;18.29;40.95
49459;BME280;35354;51.296;16.924;2023-05-01T09:38:22;99876.34;;;18.52;41.89
49459;BME280;35354;51.296;16.924;2023-05-01T09:40:48;99862.09;;;18.66;41.30
49459;BME280;35354;51.296;16.924;2023-05-01T09:43:23;99878.75;;;18.66;41.30
49459;BME280;35354;51.296;16.924;2023-05-01T09:46:18;99874.53;;;18.53;41.36
49459;BME280;35354;51.296;16.924;2023-05-01T09:48:58;99856.47;;;18.24;41.76
49459;BME280;35354;51.296;16.924;2023-05-01T09:51:26;99872.78;;;17.94;40.83
49459;BME280;35354;51.296;16.924;2023-05-01T09:53:54;99860.66;;;17.67;40.82
49459;BME280;35354;51.296;16.924;2023-05-01T09:56:20;99865.69;;;17.46;41.30
49459;BME280;35354;51.296;16.924;2023-05-01T09:58:48;99854.84;;;17.38;41.53
49459;BME280;35354;51.296;16.924;2023-05-01T10:01:13;99804.78;;;17.14;41.88
49459;BME280;35354;51.296;16.924;2023-05-01T10:03:39;99854.38;;;17.57;42.09
49459;BME280;35354;51.296;16.924;2023-05-01T10:06:08;99810.84;;;17.40;41.36
49459;BME280;35354;51.296;16.924;2023-05-01T10:08:44;99841.09;;;17.59;41.81
49459;BME280;35354;51.296;16.924;2023-05-01T10:11:10;99844.94;;;17.42;40.61
49459;BME280;35354;51.296;16.924;2023-05-01T10:13:36;99853.34;;;17.47;41.26
49459;BME280;35354;51.296;16.924;2023-05-01T10:16:01;99849.72;;;17.37;40.83
49459;BME280;35354;51.296;16.924;2023-05-01T10:18:35;99840.81;;;17.51;41.18
49459;BME280;35354;51.296;16.924;2023-05-01T10:21:43;99847.66;;;17.53;41.86
49459;BME280;35354;51.296;16.924;2023-05-01T10:24:09;99817.28;;;17.60;40.72
49459;BME280;35354;51.296;16.924;2023-05-01T10:26:36;99831.81;;;17.90;40.13
49459;BME280;35354;51.296;16.924;2023-05-01T10:29:02;99803.28;;;17.84;40.65
49459;BME280;35354;51.296;16.924;2023-05-01T10:31:28;99822.88;;;17.56;41.03
49459;BME280;35354;51.296;16.924;2023-05-01T10:33:57;99824.66;;;17.55;41.36
49459;BME280;35354;51.296;16.924;2023-05-01T10:36:36;99784.19;;;17.08;39.17
49459;BME280;35354;51.296;16.924;2023-05-01T10:39:03;99814.56;;;17.25;40.55
49459;BME280;35354;51.296;16.924;2023-05-01T10:44:22;99772.63;;;17.35;41.67
49459;BME280;35354;51.296;16.924;2023-05-01T10:46:48;99799.91;;;17.58;40.86
49459;BME280;35354;51.296;16.924;2023-05-01T10:49:13;99810.53;;;17.56;41.08
49459;BME280;35354;51.296;16.924;2023-05-01T10:54:31;99805.38;;;17.31;39.14
49459;BME280;35354;51.296;16.924;2023-05-01T10:57:00;99788.47;;;17.46;38.87
49459;BME280;35354;51.296;16.924;2023-05-01T11:00:08;99797.94;;;17.73;39.29
49459;BME280;35354;51.296;16.924;2023-05-01T11:02:21;99786.56;;;17.72;40.36
49459;BME280;35354;51.296;16.924;2023-05-01T11:04:49;99777.69;;;17.73;39.54
49459;BME280;35354;51.296;16.924;2023-05-01T11:07:16;99771.53;;;17.85;39.07
49459;BME280;35354;51.296;16.924;2023-05-01T11:09:43;99785.19;;;17.79;39.05
49459;BME280;35354;51.296;16.924;2023-05-01T11:12:10;99731.78;;;17.53;38.70
49459;BME280;35354;51.296;16.924;2023-05-01T11:20:07;99750.72;;;17.93;38.73
49459;BME280;35354;51.296;16.924;2023-05-01T11:22:33;99736.25;;;17.88;38.29
49459;BME280;35354;51.296;16.924;2023-05-01T11:25:00;99707.69;;;17.82;39.04
49459;BME280;35354;51.296;16.924;2023-05-01T11:27:29;99740.00;;;18.19;39.07
49459;BME280;35354;51.296;16.924;2023-05-01T11:29:57;99707.78;;;18.04;39.20
49459;BME280;35354;51.296;16.924;2023-05-01T11:32:25;99735.78;;;18.05;37.67
49459;BME280;35354;51.296;16.924;2023-05-01T11:34:51;99717.56;;;18.02;37.58
49459;BME280;35354;51.296;16.924;2023-05-01T11:37:17;99719.50;;;18.00;38.48
49459;BME280;35354;51.296;16.924;2023-05-01T11:39:49;99714.34;;;18.10;37.87
49459;BME280;35354;51.296;16.924;2023-05-01T11:42:19;99745.25;;;17.97;38.07
49459;BME280;35354;51.296;16.924;2023-05-01T11:45:07;99724.03;;;17.87;38.71
49459;BME280;35354;51.296;16.924;2023-05-01T11:47:35;99676.22;;;17.80;39.07
49459;BME280;35354;51.296;16.924;2023-05-01T11:50:00;99679.00;;;18.01;38.61
49459;BME280;35354;51.296;16.924;2023-05-01T11:52:27;99703.56;;;18.24;38.09
49459;BME280;35354;51.296;16.924;2023-05-01T11:54:53;99700.94;;;18.24;37.78
49459;BME280;35354;51.296;16.924;2023-05-01T11:57:18;99689.06;;;18.18;38.37
49459;BME280;35354;51.296;16.924;2023-05-01T11:59:47;99683.44;;;18.23;38.59
49459;BME280;35354;51.296;16.924;2023-05-01T12:02:19;99672.91;;;18.12;37.24
49459;BME280;35354;51.296;16.924;2023-05-01T12:04:45;99679.13;;;18.11;37.03
49459;BME280;35354;51.296;16.924;2023-05-01T12:07:21;99684.75;;;18.06;37.76
49459;BME280;35354;51.296;16.924;2023-05-01T12:09:47;99679.84;;;18.02;37.76
49459;BME280;35354;51.296;16.924;2023-05-01T12:12:14;99643.53;;;17.94;38.24
49459;BME280;35354;51.296;16.924;2023-05-01T12:14:39;99669.78;;;18.18;38.20
49459;BME280;35354;51.296;16.924;2023-05-01T12:17:05;99620.53;;;17.85;38.11
49459;BME280;35354;51.296;16.924;2023-05-01T12:19:31;99662.59;;;18.31;38.42
49459;BME280;35354;51.296;16.924;2023-05-01T12:22:09;99671.22;;;18.44;38.38
49459;BME280;35354;51.296;16.924;2023-05-01T12:24:34;99659.38;;;18.50;37.95
49459;BME280;35354;51.296;16.924;2023-05-01T12:27:00;99663.31;;;18.56;38.19
49459;BME280;35354;51.296;16.924;2023-05-01T12:29:38;99672.78;;;18.58;37.68
49459;BME280;35354;51.296;16.924;2023-05-01T12:32:04;99656.81;;;18.49;38.63
49459;BME280;35354;51.296;16.924;2023-05-01T12:34:29;99656.34;;;18.55;37.19
49459;BME280;35354;51.296;16.924;2023-05-01T12:36:57;99637.78;;;18.45;36.92
49459;BME280;35354;51.296;16.924;2023-05-01T12:39:24;99643.88;;;18.57;37.48
49459;BME280;35354;51.296;16.924;2023-05-01T12:41:51;99622.66;;;18.58;37.15
49459;BME280;35354;51.296;16.924;2023-05-01T12:44:24;99638.38;;;18.71;36.71
49459;BME280;35354;51.296;16.924;2023-05-01T12:47:04;99587.09;;;18.41;35.51
49459;BME280;35354;51.296;16.924;2023-05-01T12:49:32;99615.94;;;18.77;34.45
49459;BME280;35354;51.296;16.924;2023-05-01T12:52:00;99617.19;;;18.93;35.29
49459;BME280;35354;51.296;16.924;2023-05-01T12:57:14;99600.97;;;18.98;35.63
49459;BME280;35354;51.296;16.924;2023-05-01T12:59:44;99613.75;;;19.14;34.44
49459;BME280;35354;51.296;16.924;2023-05-01T13:02:14;99608.53;;;19.24;34.74
49459;BME280;35354;51.296;16.924;2023-05-01T13:04:41;99595.69;;;19.30;34.80
49459;BME280;35354;51.296;16.924;2023-05-01T13:07:19;99599.41;;;19.28;35.09
49459;BME280;35354;51.296;16.924;2023-05-01T13:09:55;99603.31;;;19.12;35.24
49459;BME280;35354;51.296;16.924;2023-05-01T13:12:23;99588.28;;;19.13;34.94
49459;BME280;35354;51.296;16.924;2023-05-01T13:14:49;99584.19;;;19.20;34.81
49459;BME280;35354;51.296;16.924;2023-05-01T13:17:31;99582.88;;;19.26;35.78
49459;BME280;35354;51.296;16.924;2023-05-01T13:19:57;99590.81;;;19.14;35.29
49459;BME280;35354;51.296;16.924;2023-05-01T13:22:28;99590.00;;;19.14;34.51